createdAt,value
2018-07-13T00:00:05.638Z,87.15
2018-07-13T00:01:00.661Z,86.96
2018-07-13T00:01:40.631Z,87.25
2018-07-13T00:02:45.653Z,87.63
2018-07-13T00:03:39.654Z,87.54
2018-07-13T00:06:32.411Z,88.02
2018-07-13T00:07:17.425Z,87.73
2018-07-13T00:08:31.867Z,87.73
2018-07-13T00:11:04.127Z,87.63
2018-07-13T00:11:45.137Z,87.88
2018-07-13T00:12:43.135Z,87.73
2018-07-13T00:13:43.644Z,87.40
2018-07-13T00:14:43.634Z,87.82
2018-07-13T00:15:43.636Z,88.17
2018-07-13T00:16:43.639Z,88.07
2018-07-13T00:17:44.135Z,88.17
2018-07-13T00:18:44.132Z,88.55
2018-07-13T00:19:44.134Z,88.45
2018-07-13T00:20:44.139Z,88.45
2018-07-13T00:22:05.635Z,88.26
2018-07-13T00:22:44.635Z,88.07
2018-07-13T00:23:44.682Z,87.49
2018-07-13T00:24:44.643Z,87.49
2018-07-13T00:25:44.660Z,87.68
2018-07-13T00:27:06.135Z,87.40
2018-07-13T00:27:46.567Z,87.88
2018-07-13T00:28:45.131Z,87.78
2018-07-13T00:29:45.131Z,87.40
2018-07-13T00:30:45.635Z,87.68
2018-07-13T00:31:45.634Z,87.40
2018-07-13T00:32:45.635Z,87.40
2018-07-13T00:33:45.635Z,87.59
2018-07-13T00:34:46.135Z,87.40
2018-07-13T00:37:17.533Z,87.40
2018-07-13T00:38:18.975Z,87.59
2018-07-13T00:39:16.961Z,87.49
2018-07-13T00:42:10.208Z,87.78
2018-07-13T00:42:50.671Z,88.26
2018-07-13T00:43:50.658Z,87.98
2018-07-13T00:46:20.954Z,88.07
2018-07-13T00:47:41.959Z,88.26
2018-07-13T00:48:20.449Z,88.35
2018-07-13T00:50:52.699Z,87.40
2018-07-13T00:51:52.701Z,87.49
2018-07-13T00:52:52.699Z,87.59
2018-07-13T00:53:53.201Z,87.78
2018-07-13T00:54:59.203Z,87.49
2018-07-13T00:55:53.199Z,87.49
2018-07-13T00:56:54.199Z,88.17
2018-07-13T00:57:53.701Z,88.35
2018-07-13T00:58:53.701Z,88.35
2018-07-13T01:01:26.644Z,87.98
2018-07-13T01:02:25.203Z,87.98
2018-07-13T01:03:25.199Z,88.17
2018-07-13T01:04:46.723Z,88.17
2018-07-13T01:05:24.925Z,88.45
2018-07-13T01:06:46.701Z,88.22
2018-07-13T01:07:31.710Z,87.84
2018-07-13T01:08:26.203Z,87.59
2018-07-13T01:09:26.207Z,88.02
2018-07-13T01:10:25.553Z,89.18
2018-07-13T01:11:26.216Z,88.70
2018-07-13T01:15:29.387Z,89.08
2018-07-13T01:16:29.397Z,89.47
2018-07-13T01:17:29.408Z,89.65
2018-07-13T01:18:31.896Z,89.37
2018-07-13T01:19:29.895Z,90.33
2018-07-13T01:20:35.894Z,90.14
2018-07-13T01:23:01.584Z,89.56
2018-07-13T01:24:01.589Z,89.85
2018-07-13T01:25:01.586Z,90.23
2018-07-13T01:26:02.086Z,89.37
2018-07-13T01:27:02.090Z,89.37
2018-07-13T01:29:33.581Z,89.56
2018-07-13T01:30:33.590Z,89.08
2018-07-13T01:31:33.589Z,89.65
2018-07-13T01:32:55.090Z,89.47
2018-07-13T01:33:33.314Z,89.85
2018-07-13T01:34:35.528Z,90.33
2018-07-13T01:35:33.513Z,89.08
2018-07-13T01:36:36.592Z,89.12
2018-07-13T01:39:05.854Z,89.27
2018-07-13T01:40:05.869Z,89.37
2018-07-13T01:41:05.860Z,88.70
2018-07-13T01:42:07.353Z,88.84
2018-07-13T01:43:08.794Z,88.98
2018-07-13T01:44:06.361Z,88.17
2018-07-13T01:45:06.365Z,88.45
2018-07-13T01:46:06.865Z,88.35
2018-07-13T01:47:06.872Z,88.17
2018-07-13T01:48:06.860Z,88.35
2018-07-13T01:49:06.862Z,87.98
2018-07-13T01:50:28.364Z,88.26
2018-07-13T01:51:06.597Z,88.17
2018-07-13T01:52:07.360Z,88.26
2018-07-13T01:53:07.364Z,88.89
2018-07-13T01:54:07.860Z,88.51
2018-07-13T01:55:07.861Z,89.56
2018-07-13T01:56:07.859Z,89.18
2018-07-13T01:57:08.804Z,89.18
2018-07-13T01:58:14.361Z,89.08
2018-07-13T01:59:08.360Z,89.27
2018-07-13T02:00:07.594Z,89.08
2018-07-13T02:01:09.293Z,88.98
2018-07-13T02:02:08.361Z,88.60
2018-07-13T02:03:08.860Z,88.60
2018-07-13T02:05:40.237Z,89.18
2018-07-13T02:08:13.753Z,88.74
2018-07-13T02:09:13.198Z,88.79
2018-07-13T02:10:11.183Z,88.70
2018-07-13T02:11:14.256Z,88.51
2018-07-13T02:13:44.027Z,89.22
2018-07-13T02:14:44.035Z,89.18
2018-07-13T02:15:44.040Z,89.47
2018-07-13T02:17:05.534Z,88.60
2018-07-13T02:19:15.928Z,88.93
2018-07-13T02:20:15.936Z,88.26
2018-07-13T02:21:15.412Z,88.17
2018-07-13T02:22:16.441Z,88.22
2018-07-13T02:23:16.436Z,88.26
2018-07-13T02:24:16.440Z,88.22
2018-07-13T02:25:16.436Z,88.79
2018-07-13T02:26:16.938Z,88.70
2018-07-13T02:27:16.935Z,88.22
2018-07-13T02:28:16.935Z,87.93
2018-07-13T02:29:16.935Z,88.31
2018-07-13T02:31:48.682Z,88.51
2018-07-13T02:33:11.621Z,88.22
2018-07-13T02:34:14.621Z,88.89
2018-07-13T02:37:52.493Z,89.27
2018-07-13T02:38:52.503Z,89.18
2018-07-13T02:39:52.494Z,88.60
2018-07-13T02:40:52.495Z,88.98
2018-07-13T02:41:59.032Z,88.31
2018-07-13T02:44:23.681Z,87.84
2018-07-13T02:45:38.383Z,87.93
2018-07-13T02:46:45.391Z,88.12
2018-07-13T02:47:47.944Z,88.02
2018-07-13T02:48:45.883Z,88.41
2018-07-13T02:49:45.892Z,88.22
2018-07-13T02:51:57.369Z,88.12
2018-07-13T02:52:56.435Z,88.60
2018-07-13T02:53:56.433Z,88.31
2018-07-13T02:55:17.932Z,88.27
2018-07-13T02:56:17.163Z,87.60
2018-07-13T02:57:17.932Z,87.50
2018-07-13T02:57:56.935Z,87.50
2018-07-13T02:59:19.437Z,87.70
2018-07-13T02:59:57.433Z,87.60
2018-07-13T03:00:58.888Z,87.41
2018-07-13T03:01:57.442Z,86.74
2018-07-13T03:02:57.433Z,87.50
2018-07-13T03:03:58.928Z,87.60
2018-07-13T03:04:57.933Z,87.31
2018-07-13T03:05:57.288Z,87.65
2018-07-13T03:06:57.933Z,88.17
2018-07-13T03:08:19.435Z,88.13
2018-07-13T03:08:59.865Z,88.42
2018-07-13T03:09:58.433Z,88.46
2018-07-13T03:10:58.512Z,87.84
2018-07-13T03:13:31.142Z,88.23
2018-07-13T03:14:30.209Z,87.46
2018-07-13T03:15:30.209Z,87.46
2018-07-13T03:18:22.954Z,87.17
2018-07-13T03:19:01.969Z,87.37
2018-07-13T03:20:01.973Z,87.46
2018-07-13T03:21:02.459Z,87.55
2018-07-13T03:22:02.476Z,87.27
2018-07-13T03:23:02.456Z,87.37
2018-07-13T03:24:24.900Z,87.27
2018-07-13T03:26:55.155Z,88.23
2018-07-13T03:27:35.594Z,87.27
2018-07-13T03:28:33.628Z,89.09
2018-07-13T03:31:06.396Z,87.94
2018-07-13T03:32:27.400Z,88.03
2018-07-13T03:33:06.404Z,88.03
2018-07-13T03:34:06.401Z,87.84
2018-07-13T03:35:10.333Z,88.03
2018-07-13T03:36:06.900Z,88.37
2018-07-13T03:37:06.907Z,88.37
2018-07-13T03:38:06.900Z,88.61
2018-07-13T03:39:07.400Z,88.13
2018-07-13T03:40:07.399Z,88.95
2018-07-13T03:41:07.400Z,89.14
2018-07-13T03:42:07.401Z,89.14
2018-07-13T03:43:28.900Z,88.37
2018-07-13T03:44:07.902Z,89.04
2018-07-13T03:45:07.900Z,89.14
2018-07-13T03:46:07.901Z,88.95
2018-07-13T03:48:38.911Z,88.99
2018-07-13T03:49:59.991Z,89.04
2018-07-13T03:50:39.669Z,89.23
2018-07-13T03:52:41.640Z,89.09
2018-07-13T03:53:41.134Z,89.28
2018-07-13T03:54:40.162Z,88.70
2018-07-13T03:55:40.162Z,88.32
2018-07-13T03:58:11.939Z,88.32
2018-07-13T03:59:11.946Z,87.94
2018-07-13T04:00:11.952Z,88.03
2018-07-13T04:02:43.701Z,88.13
2018-07-13T04:03:43.792Z,87.94
2018-07-13T04:05:04.747Z,88.90
2018-07-13T04:05:44.213Z,88.51
2018-07-13T04:06:47.140Z,88.70
2018-07-13T04:08:05.208Z,88.70
2018-07-13T04:08:50.205Z,89.04
2018-07-13T04:09:44.207Z,89.28
2018-07-13T04:10:50.704Z,88.51
2018-07-13T04:11:44.709Z,88.42
2018-07-13T04:12:46.182Z,88.61
2018-07-13T04:13:44.176Z,88.70
2018-07-13T04:15:12.209Z,88.80
2018-07-13T04:15:45.210Z,88.32
2018-07-13T04:16:45.212Z,88.99
2018-07-13T04:17:45.211Z,88.03
2018-07-13T04:18:45.708Z,88.42
2018-07-13T04:21:17.095Z,88.61
2018-07-13T04:22:17.097Z,89.18
2018-07-13T04:23:16.560Z,89.18
2018-07-13T04:26:15.835Z,88.99
2018-07-13T04:26:48.815Z,88.03
2018-07-13T04:27:48.842Z,88.70
2018-07-13T04:28:49.381Z,88.61
2018-07-13T04:29:49.346Z,88.51
2018-07-13T04:30:50.803Z,88.61
2018-07-13T04:32:10.341Z,88.80
2018-07-13T04:32:50.797Z,88.70
2018-07-13T04:35:23.081Z,88.70
2018-07-13T04:36:21.054Z,88.51
2018-07-13T04:37:42.049Z,88.32
2018-07-13T04:38:42.552Z,89.37
2018-07-13T04:39:42.550Z,88.90
2018-07-13T04:40:42.591Z,89.28
2018-07-13T04:41:22.981Z,89.09
2018-07-13T04:43:53.291Z,89.37
2018-07-13T04:46:45.779Z,89.28
2018-07-13T04:47:25.780Z,89.37
2018-07-13T04:48:24.837Z,88.80
2018-07-13T04:49:25.285Z,88.90
2018-07-13T04:50:25.294Z,88.61
2018-07-13T04:51:24.508Z,89.37
2018-07-13T04:52:25.284Z,88.99
2018-07-13T04:53:25.285Z,89.57
2018-07-13T04:54:26.789Z,89.86
2018-07-13T04:55:25.015Z,89.57
2018-07-13T04:56:25.120Z,89.86
2018-07-13T04:57:25.787Z,89.57
2018-07-13T04:58:25.788Z,89.76
2018-07-13T04:59:26.286Z,89.66
2018-07-13T05:00:26.286Z,89.95
2018-07-13T05:01:26.285Z,90.00
2018-07-13T05:02:26.288Z,89.80
2018-07-13T05:03:26.786Z,89.76
2018-07-13T05:04:28.766Z,90.09
2018-07-13T05:05:26.788Z,89.71
2018-07-13T05:06:26.793Z,89.13
2018-07-13T05:07:27.286Z,89.32
2018-07-13T05:08:27.285Z,89.32
2018-07-13T05:09:27.285Z,89.32
2018-07-13T05:10:27.278Z,89.42
2018-07-13T05:14:30.472Z,89.51
2018-07-13T05:15:29.812Z,89.42
2018-07-13T05:16:30.470Z,89.23
2018-07-13T05:19:02.227Z,88.94
2018-07-13T05:20:01.604Z,89.18
2018-07-13T05:21:02.265Z,88.94
2018-07-13T05:22:02.748Z,89.18
2018-07-13T05:23:16.733Z,88.98
2018-07-13T05:24:02.084Z,89.65
2018-07-13T05:28:05.798Z,89.85
2018-07-13T05:29:08.237Z,89.85
2018-07-13T05:30:05.815Z,90.04
2018-07-13T05:31:06.306Z,90.14
2018-07-13T05:32:27.306Z,90.14
2018-07-13T05:33:06.306Z,90.04
2018-07-13T05:34:07.303Z,90.14
2018-07-13T05:35:05.912Z,89.89
2018-07-13T05:37:38.179Z,89.61
2018-07-13T05:38:38.185Z,89.51
2018-07-13T05:41:09.938Z,89.12
2018-07-13T05:42:09.871Z,89.51
2018-07-13T05:43:09.938Z,88.84
2018-07-13T05:47:13.163Z,88.40
2018-07-13T05:48:27.170Z,87.82
2018-07-13T05:50:44.794Z,87.73
2018-07-13T05:53:16.299Z,87.73
2018-07-13T05:54:18.274Z,87.63
2018-07-13T05:55:16.310Z,87.58
2018-07-13T05:56:16.811Z,87.87
2018-07-13T05:57:16.814Z,87.49
2018-07-13T05:58:38.738Z,87.58
2018-07-13T05:59:16.806Z,87.77
2018-07-13T06:01:54.552Z,87.10
2018-07-13T06:02:47.942Z,87.19
2018-07-13T06:05:20.683Z,86.76
2018-07-13T06:06:21.159Z,86.52
2018-07-13T06:07:28.660Z,85.80
2018-07-13T06:10:13.481Z,85.80
2018-07-13T06:15:28.702Z,84.69
2018-07-13T06:17:58.276Z,84.30
2018-07-13T06:19:20.203Z,83.63
2018-07-13T06:19:58.269Z,84.21
2018-07-13T06:21:19.344Z,83.73
2018-07-13T06:23:31.981Z,82.42
2018-07-13T06:24:29.987Z,82.81
2018-07-13T06:25:50.992Z,81.46
2018-07-13T06:26:30.487Z,81.75
2018-07-13T06:29:01.885Z,81.17
2018-07-13T06:31:54.378Z,81.21
2018-07-13T06:32:33.388Z,81.02
2018-07-13T06:33:54.399Z,81.02
2018-07-13T06:34:33.012Z,80.35
2018-07-13T06:35:33.889Z,80.92
2018-07-13T06:36:54.890Z,80.35
2018-07-13T06:37:33.371Z,80.44
2018-07-13T06:40:07.085Z,80.68
2018-07-13T06:41:04.945Z,79.61
2018-07-13T06:42:05.622Z,78.65
2018-07-13T06:47:40.125Z,78.36
2018-07-13T06:50:11.640Z,77.40
2018-07-13T06:51:11.642Z,77.50
2018-07-13T06:52:11.644Z,77.25
2018-07-13T06:53:12.144Z,77.25
2018-07-13T06:57:39.912Z,76.67
2018-07-13T06:58:14.404Z,76.18
2018-07-13T06:59:36.451Z,76.86
2018-07-13T07:00:14.553Z,76.28
2018-07-13T07:01:14.654Z,76.03
2018-07-13T07:02:15.450Z,76.23
2018-07-13T07:03:15.450Z,76.32
2018-07-13T07:04:17.951Z,76.51
2018-07-13T07:05:42.961Z,75.07
2018-07-13T07:06:15.950Z,75.16
2018-07-13T07:10:25.401Z,74.14
2018-07-13T07:11:19.406Z,74.52
2018-07-13T07:15:25.150Z,74.72
2018-07-13T07:16:44.156Z,73.47
2018-07-13T07:18:54.786Z,73.69
2018-07-13T07:19:54.791Z,72.44
2018-07-13T07:20:54.794Z,72.25
2018-07-13T07:21:55.291Z,71.58
2018-07-13T07:22:55.290Z,70.22
2018-07-13T07:23:55.290Z,69.45
2018-07-13T07:24:55.291Z,68.59
2018-07-13T07:28:58.496Z,68.91
2018-07-13T07:29:58.503Z,68.81
2018-07-13T07:31:13.004Z,68.23
2018-07-13T07:33:32.264Z,68.75
2018-07-13T07:34:33.708Z,68.36
2018-07-13T07:35:50.752Z,66.63
2018-07-13T07:36:36.783Z,66.33
2018-07-13T07:37:51.777Z,66.91
2018-07-13T07:38:53.774Z,66.63
2018-07-13T07:39:30.774Z,67.30
2018-07-13T07:40:30.775Z,67.30
2018-07-13T07:41:30.384Z,66.72
2018-07-13T07:42:51.500Z,65.69
2018-07-13T07:43:32.208Z,65.98
2018-07-13T07:44:35.206Z,65.20
2018-07-13T07:45:52.774Z,63.18
2018-07-13T07:46:31.769Z,62.70
2018-07-13T07:47:31.773Z,64.37
2018-07-13T07:48:31.784Z,65.30
2018-07-13T07:49:52.392Z,64.37
2018-07-13T07:50:52.449Z,65.14
2018-07-13T07:51:53.275Z,65.24
2018-07-13T07:52:32.542Z,61.47
2018-07-13T07:53:38.784Z,60.79
2018-07-13T07:56:27.027Z,59.56
2018-07-13T07:58:34.823Z,59.79
2018-07-13T08:01:29.555Z,58.14
2018-07-13T08:02:07.089Z,58.53
2018-07-13T08:03:08.551Z,59.11
2018-07-13T08:05:38.831Z,55.27
2018-07-13T08:06:38.343Z,54.79
2018-07-13T08:07:38.866Z,56.04
2018-07-13T08:09:01.799Z,56.62
2018-07-13T08:09:38.550Z,54.98
2018-07-13T08:11:01.772Z,53.43
2018-07-13T08:11:39.340Z,52.85
2018-07-13T08:14:34.665Z,49.27
2018-07-13T08:15:11.620Z,48.01
2018-07-13T08:16:17.616Z,46.66
2018-07-13T08:17:11.614Z,46.75
2018-07-13T08:18:32.203Z,47.43
2018-07-13T08:19:11.294Z,49.46
2018-07-13T08:20:12.113Z,47.72
2018-07-13T08:21:12.111Z,49.68
2018-07-13T08:22:18.112Z,49.49
2018-07-13T08:23:11.720Z,52.78
2018-07-13T08:24:32.809Z,51.62
2018-07-13T08:25:14.612Z,49.22
2018-07-13T08:26:35.180Z,49.32
2018-07-13T08:28:44.240Z,49.32
2018-07-13T08:29:43.590Z,47.19
2018-07-13T08:30:44.247Z,46.89
2018-07-13T08:33:39.037Z,44.37
2018-07-13T08:34:37.044Z,44.09
2018-07-13T08:35:16.047Z,44.57
2018-07-13T08:36:19.542Z,47.98
2018-07-13T08:37:22.546Z,46.72
2018-07-13T08:38:16.544Z,46.62
2018-07-13T08:39:16.545Z,49.05
2018-07-13T08:40:23.044Z,45.56
2018-07-13T08:42:48.435Z,46.14
2018-07-13T08:45:46.980Z,44.90
2018-07-13T08:46:21.393Z,46.65
2018-07-13T08:47:19.959Z,45.58
2018-07-13T08:48:20.465Z,44.03
2018-07-13T08:50:51.843Z,43.93
2018-07-13T08:51:51.200Z,45.39
2018-07-13T08:52:51.913Z,42.85
2018-07-13T08:53:52.350Z,41.51
2018-07-13T08:54:52.348Z,42.19
2018-07-13T08:55:52.352Z,41.80
2018-07-13T08:56:52.351Z,40.23
2018-07-13T08:57:52.863Z,40.92
2018-07-13T08:58:52.082Z,41.41
2018-07-13T09:00:06.861Z,42.86
2018-07-13T09:00:54.852Z,45.58
2018-07-13T09:01:53.357Z,43.16
2018-07-13T09:02:53.352Z,41.51
2018-07-13T09:03:53.355Z,42.86
2018-07-13T09:04:53.353Z,43.64
2018-07-13T09:07:26.726Z,43.37
2018-07-13T09:08:25.204Z,44.15
2018-07-13T09:09:39.703Z,43.18
2018-07-13T09:11:57.688Z,42.99
2018-07-13T09:13:18.607Z,44.15
2018-07-13T09:13:57.604Z,42.99
2018-07-13T09:14:57.604Z,43.57
2018-07-13T09:19:01.143Z,41.43
2018-07-13T09:20:02.107Z,43.20
2018-07-13T09:21:01.151Z,42.91
2018-07-13T09:22:25.590Z,40.87
2018-07-13T09:23:07.649Z,41.74
2018-07-13T09:24:01.706Z,40.97
2018-07-13T09:25:01.649Z,41.26
2018-07-13T09:27:54.409Z,38.83
2018-07-13T09:28:32.788Z,38.64
2018-07-13T09:29:33.422Z,39.51
2018-07-13T09:30:54.917Z,40.00
2018-07-13T09:31:33.916Z,37.96
2018-07-13T09:32:34.914Z,39.80
2018-07-13T09:33:33.401Z,37.66
2018-07-13T09:36:19.706Z,40.09
2018-07-13T09:37:05.705Z,40.31
2018-07-13T09:38:07.236Z,41.38
2018-07-13T09:39:33.205Z,40.50
2018-07-13T09:40:06.207Z,41.08
2018-07-13T09:41:05.562Z,38.56
2018-07-13T09:42:06.208Z,38.54
2018-07-13T09:43:27.709Z,38.64
2018-07-13T09:44:05.946Z,38.46
2018-07-13T09:45:06.713Z,39.61
2018-07-13T09:46:06.705Z,39.51
2018-07-13T09:47:07.207Z,41.06
2018-07-13T09:48:07.206Z,41.55
2018-07-13T09:49:07.214Z,39.43
2018-07-13T09:50:07.206Z,38.27
2018-07-13T09:51:09.722Z,40.21
2018-07-13T09:52:09.709Z,39.34
2018-07-13T09:54:43.165Z,38.75
2018-07-13T09:55:39.239Z,39.14
2018-07-13T09:56:39.233Z,39.53
2018-07-13T09:57:39.733Z,39.53
2018-07-13T09:58:38.973Z,39.94
2018-07-13T09:59:39.738Z,40.62
2018-07-13T10:00:39.749Z,40.72
2018-07-13T10:01:40.234Z,39.36
2018-07-13T10:02:42.669Z,39.45
2018-07-13T10:03:40.268Z,38.96
2018-07-13T10:04:40.232Z,35.96
2018-07-13T10:06:01.739Z,38.19
2018-07-13T10:08:12.127Z,39.36
2018-07-13T10:10:12.133Z,38.29
2018-07-13T10:11:12.133Z,39.18
2018-07-13T10:12:12.133Z,38.31
2018-07-13T10:13:12.134Z,38.40
2018-07-13T10:14:12.137Z,38.31
2018-07-13T10:15:13.068Z,40.44
2018-07-13T10:16:12.361Z,39.20
2018-07-13T10:17:12.635Z,37.72
2018-07-13T10:18:12.642Z,38.62
2018-07-13T10:19:13.132Z,37.26
2018-07-13T10:20:13.133Z,35.00
2018-07-13T10:21:13.131Z,34.63
2018-07-13T10:22:13.134Z,36.36
2018-07-13T10:23:13.241Z,36.16
2018-07-13T10:24:13.645Z,37.52
2018-07-13T10:25:13.638Z,36.07
2018-07-13T10:26:13.636Z,37.04
2018-07-13T10:27:35.134Z,37.72
2018-07-13T10:28:14.135Z,37.93
2018-07-13T10:29:14.188Z,37.72
2018-07-13T10:30:14.134Z,37.06
2018-07-13T10:31:14.635Z,36.46
2018-07-13T10:32:14.635Z,35.29
2018-07-13T10:33:14.632Z,34.32
2018-07-13T10:34:14.639Z,35.58
2018-07-13T10:35:15.137Z,35.10
2018-07-13T10:36:15.135Z,37.34
2018-07-13T10:37:15.018Z,36.67
2018-07-13T10:38:15.144Z,36.08
2018-07-13T10:39:15.638Z,36.77
2018-07-13T10:40:15.636Z,36.38
2018-07-13T10:41:16.136Z,37.54
2018-07-13T10:42:16.134Z,37.56
2018-07-13T10:43:37.640Z,38.24
2018-07-13T10:44:37.639Z,37.66
2018-07-13T10:45:16.638Z,36.12
2018-07-13T10:46:37.636Z,35.73
2018-07-13T10:47:38.159Z,34.64
2018-07-13T10:48:38.135Z,34.66
2018-07-13T10:49:17.138Z,36.02
2018-07-13T10:50:16.619Z,37.68
2018-07-13T10:52:48.878Z,33.78
2018-07-13T10:54:09.888Z,34.66
2018-07-13T10:55:09.892Z,34.27
2018-07-13T10:57:20.650Z,34.47
2018-07-13T10:58:43.131Z,35.44
2018-07-13T10:59:41.663Z,36.41
2018-07-13T11:00:20.253Z,34.86
2018-07-13T11:01:27.157Z,33.69
2018-07-13T11:02:21.156Z,36.22
2018-07-13T11:03:21.157Z,35.63
2018-07-13T11:04:23.597Z,34.86
2018-07-13T11:05:20.836Z,34.76
2018-07-13T11:06:21.655Z,34.27
2018-07-13T11:07:42.659Z,33.98
2018-07-13T11:08:21.657Z,34.47
2018-07-13T11:09:22.163Z,34.27
2018-07-13T11:10:23.206Z,33.69
2018-07-13T11:11:22.155Z,36.22
2018-07-13T11:12:43.157Z,33.78
2018-07-13T11:13:28.655Z,34.00
2018-07-13T11:15:54.561Z,33.39
2018-07-13T11:16:54.573Z,32.52
2018-07-13T11:17:54.564Z,33.90
2018-07-13T11:22:02.899Z,36.53
2018-07-13T11:24:14.252Z,35.47
2018-07-13T11:25:35.164Z,34.99
2018-07-13T11:26:28.198Z,34.00
2018-07-13T11:27:37.681Z,32.43
2018-07-13T11:31:56.364Z,34.78
2018-07-13T11:32:56.295Z,34.58
2018-07-13T11:33:34.796Z,34.50
2018-07-13T11:34:57.730Z,34.89
2018-07-13T11:35:57.796Z,34.01
2018-07-13T11:36:36.731Z,34.42
2018-07-13T11:37:35.813Z,37.05
2018-07-13T11:38:36.301Z,34.81
2018-07-13T11:39:36.307Z,35.49
2018-07-13T11:40:36.295Z,33.25
2018-07-13T11:41:36.326Z,33.54
2018-07-13T11:42:56.921Z,32.67
2018-07-13T11:43:38.797Z,32.28
2018-07-13T11:44:36.798Z,33.44
2018-07-13T11:45:36.804Z,33.44
2018-07-13T11:46:37.298Z,33.44
2018-07-13T11:47:37.298Z,33.65
2018-07-13T11:48:37.294Z,34.83
2018-07-13T11:49:57.783Z,34.53
2018-07-13T11:52:08.381Z,34.16
2018-07-13T11:53:09.099Z,32.58
2018-07-13T11:54:31.062Z,31.90
2018-07-13T11:59:44.721Z,34.16
2018-07-13T12:01:04.114Z,32.50
2018-07-13T12:02:04.843Z,31.62
2018-07-13T12:03:05.274Z,32.13
2018-07-13T12:03:44.304Z,31.64
2018-07-13T12:04:45.189Z,30.86
2018-07-13T12:05:44.256Z,32.13
2018-07-13T12:07:05.256Z,30.76
2018-07-13T12:07:44.911Z,30.86
2018-07-13T12:08:46.223Z,30.65
2018-07-13T12:09:45.689Z,31.54
2018-07-13T12:10:58.779Z,30.37
2018-07-13T12:13:37.591Z,31.46
2018-07-13T12:14:15.997Z,30.66
2018-07-13T12:15:22.637Z,30.86
2018-07-13T12:17:48.300Z,30.38
2018-07-13T12:20:21.840Z,29.79
2018-07-13T12:25:54.227Z,29.42
2018-07-13T12:26:54.983Z,28.64
2018-07-13T12:27:54.955Z,29.93
2018-07-13T12:29:16.515Z,28.26
2018-07-13T12:29:57.455Z,30.71
2018-07-13T12:31:09.457Z,30.10
2018-07-13T12:31:55.458Z,28.74
2018-07-13T12:32:54.948Z,28.05
2018-07-13T12:37:00.977Z,28.32
2018-07-13T12:37:59.014Z,29.10
2018-07-13T12:38:59.495Z,29.49
2018-07-13T12:40:20.487Z,31.54
2018-07-13T12:42:51.887Z,32.60
2018-07-13T12:43:36.893Z,31.62
2018-07-13T12:46:03.146Z,31.70
2018-07-13T12:47:03.093Z,31.41
2018-07-13T12:48:03.095Z,30.63
2018-07-13T12:49:03.131Z,32.37
2018-07-13T12:50:06.553Z,31.49
2018-07-13T12:52:48.946Z,32.65
2018-07-13T12:53:35.949Z,29.83
2018-07-13T12:54:34.970Z,30.63
2018-07-13T12:57:06.758Z,29.25
2018-07-13T12:58:27.767Z,30.71
2018-07-13T12:59:06.775Z,29.25
2018-07-13T13:00:27.370Z,30.44
2018-07-13T13:01:07.267Z,31.51
2018-07-13T13:02:07.268Z,30.74
2018-07-13T13:03:07.269Z,30.76
2018-07-13T13:04:07.767Z,28.61
2018-07-13T13:05:07.769Z,28.61
2018-07-13T13:06:07.765Z,27.65
2018-07-13T13:07:07.768Z,28.83
2018-07-13T13:08:08.266Z,26.99
2018-07-13T13:09:08.272Z,26.49
2018-07-13T13:10:08.268Z,27.76
2018-07-13T13:11:08.268Z,28.44
2018-07-13T13:12:09.769Z,27.64
2018-07-13T13:13:14.769Z,28.71
2018-07-13T13:14:08.769Z,26.95
2018-07-13T13:15:08.769Z,29.57
2018-07-13T13:16:36.275Z,29.59
2018-07-13T13:17:09.272Z,28.54
2018-07-13T13:18:30.269Z,27.09
2018-07-13T13:19:23.269Z,26.51
2018-07-13T13:20:09.767Z,25.93
2018-07-13T13:21:09.769Z,24.08
2018-07-13T13:22:09.129Z,23.60
2018-07-13T13:23:09.770Z,23.50
2018-07-13T13:24:10.270Z,23.42
2018-07-13T13:26:41.661Z,24.65
2018-07-13T13:27:41.670Z,25.63
2018-07-13T13:28:41.668Z,28.26
2018-07-13T13:29:42.170Z,29.91
2018-07-13T13:30:42.175Z,28.44
2018-07-13T13:31:42.168Z,26.66
2018-07-13T13:32:42.169Z,28.52
2018-07-13T13:33:42.669Z,29.80
2018-07-13T13:34:42.669Z,28.32
2018-07-13T13:36:03.669Z,29.57
2018-07-13T13:36:42.669Z,29.86
2018-07-13T13:39:13.745Z,28.29
2018-07-13T13:40:14.450Z,28.88
2018-07-13T13:41:14.453Z,29.54
2018-07-13T13:42:14.954Z,30.51
2018-07-13T13:43:14.989Z,31.19
2018-07-13T13:44:16.383Z,31.95
2018-07-13T13:45:14.950Z,30.68
2018-07-13T13:46:14.951Z,31.56
2018-07-13T13:47:36.458Z,31.37
2018-07-13T13:48:15.451Z,33.12
2018-07-13T13:49:15.451Z,31.76
2018-07-13T13:50:15.453Z,32.24
2018-07-13T13:51:15.953Z,32.63
2018-07-13T13:52:36.952Z,32.05
2018-07-13T13:53:15.310Z,34.00
2018-07-13T13:54:36.958Z,34.56
2018-07-13T13:55:36.538Z,31.84
2018-07-13T13:57:49.143Z,32.71
2018-07-13T13:58:49.152Z,34.47
2018-07-13T13:59:48.769Z,34.56
2018-07-13T14:00:51.650Z,36.12
2018-07-13T14:02:10.012Z,34.94
2018-07-13T14:03:10.651Z,36.22
2018-07-13T14:03:50.151Z,35.05
2018-07-13T14:04:50.153Z,34.56
2018-07-13T14:05:50.164Z,30.94
2018-07-13T14:06:50.150Z,31.16
2018-07-13T14:07:56.652Z,30.77
2018-07-13T14:08:50.690Z,32.03
2018-07-13T14:09:50.652Z,33.11
2018-07-13T14:10:50.654Z,34.08
2018-07-13T14:16:25.384Z,34.95
2018-07-13T14:17:46.394Z,32.71
2018-07-13T14:18:27.892Z,33.11
2018-07-13T14:19:46.891Z,35.42
2018-07-13T14:20:25.295Z,38.15
2018-07-13T14:21:25.957Z,34.76
2018-07-13T14:34:58.770Z,30.41
2018-07-13T14:35:39.166Z,30.88
2018-07-13T14:36:42.134Z,31.17
2018-07-13T14:37:58.287Z,29.71
2018-07-13T14:38:59.207Z,30.49
2018-07-13T14:39:38.205Z,30.88
2018-07-13T14:40:38.210Z,31.27
2018-07-13T14:41:59.704Z,32.43
2018-07-13T14:42:38.704Z,33.12
2018-07-13T14:43:38.704Z,31.84
2018-07-13T14:44:38.711Z,33.11
2018-07-13T14:45:41.138Z,32.13
2018-07-13T14:46:39.205Z,29.97
2018-07-13T14:47:39.205Z,30.67
2018-07-13T14:48:38.683Z,32.62
2018-07-13T14:51:10.951Z,32.50
2018-07-13T14:52:10.956Z,33.58
2018-07-13T14:53:10.961Z,34.06
2018-07-13T14:54:12.915Z,33.86
2018-07-13T14:55:25.459Z,33.09
2018-07-13T14:56:39.392Z,32.31
2018-07-13T14:57:32.460Z,34.06
2018-07-13T14:58:32.052Z,34.35
2018-07-13T14:59:32.202Z,32.40
2018-07-13T15:00:25.963Z,32.40
2018-07-13T15:01:17.959Z,33.86
2018-07-13T15:02:11.959Z,34.25
2018-07-13T15:03:32.574Z,32.68
2018-07-13T15:05:43.865Z,32.10
2018-07-13T15:06:54.845Z,32.68
2018-07-13T15:07:43.853Z,34.33
2018-07-13T15:13:19.123Z,34.45
2018-07-13T15:14:25.138Z,34.55
2018-07-13T15:15:19.246Z,34.64
2018-07-13T15:16:42.630Z,33.58
2018-07-13T15:17:19.632Z,32.50
2018-07-13T15:18:19.013Z,33.38
2018-07-13T15:19:22.062Z,36.20
2018-07-13T15:20:20.130Z,35.33
2018-07-13T15:21:20.142Z,35.91
2018-07-13T15:22:20.130Z,38.15
2018-07-13T15:23:20.130Z,37.76
2018-07-13T15:27:22.642Z,37.56
2018-07-13T15:28:23.364Z,34.63
2018-07-13T15:29:23.367Z,33.95
2018-07-13T15:30:27.797Z,34.52
2018-07-13T15:31:44.865Z,34.82
2018-07-13T15:32:23.867Z,35.29
2018-07-13T15:33:23.865Z,36.26
2018-07-13T15:34:24.373Z,34.80
2018-07-13T15:35:24.368Z,34.03
2018-07-13T15:37:55.905Z,37.14
2018-07-13T15:39:16.912Z,36.05
2018-07-13T15:40:16.912Z,35.88
2018-07-13T15:40:55.519Z,35.76
2018-07-13T15:41:56.413Z,34.70
2018-07-13T15:44:48.931Z,35.19
2018-07-13T15:45:48.940Z,36.36
2018-07-13T15:46:27.944Z,34.53
2018-07-13T15:47:49.441Z,33.77
2018-07-13T15:48:27.667Z,33.75
2018-07-13T15:49:28.440Z,34.64
2018-07-13T15:50:28.441Z,33.59
2018-07-13T15:51:28.941Z,34.56
2018-07-13T15:52:28.940Z,34.00
2018-07-13T15:53:28.291Z,32.43
2018-07-13T15:54:28.400Z,31.27
2018-07-13T15:55:29.440Z,31.46
2018-07-13T15:56:29.443Z,30.68
2018-07-13T15:57:50.440Z,30.58
2018-07-13T15:58:29.541Z,30.78
2018-07-13T15:59:29.940Z,30.88
2018-07-13T16:02:01.336Z,32.55
2018-07-13T16:03:01.344Z,31.77
2018-07-13T16:04:01.356Z,31.30
2018-07-13T16:05:03.307Z,31.09
2018-07-13T16:06:01.846Z,30.60
2018-07-13T16:07:01.845Z,30.90
2018-07-13T16:09:54.515Z,31.88
2018-07-13T16:10:33.595Z,31.12
2018-07-13T16:13:05.209Z,31.01
2018-07-13T16:14:05.217Z,31.01
2018-07-13T16:15:05.216Z,31.51
2018-07-13T16:16:05.801Z,31.02
2018-07-13T16:17:05.724Z,30.34
2018-07-13T16:18:26.721Z,29.44
2018-07-13T16:19:05.717Z,31.69
2018-07-13T16:20:06.223Z,29.95
2018-07-13T16:21:06.213Z,30.71
2018-07-13T16:22:06.216Z,30.93
2018-07-13T16:23:06.223Z,30.54
2018-07-13T16:24:06.717Z,30.91